Oakland, California
Current Conditions -  °F | °C
As of 3:53 AM on Friday 19 Dec 2014 (Local Time) from KOAK Reporting Station
Light Rain Light Rain  
Wind Chill: 55°   Ceiling: 2600
Heat Index: 55°   Visibility: 5mi
Dew Point: 51°   Wind: 13mph
Humidity: 86%   Direction: 160°SSE
Pressure: 30.15"   Gusts: NA
Location:  37.81°N, 122.27°W
Report Text: KOAK 191153Z 16011KT 5SM -RA BR FEW015 OVC026 13/11 A3015 RMK AO2 RAB27 SLP209 P0001 60001 70001 T01280106 10133 20122 55004
Loading
Personal Weather Stations






























Interactive Weather Map New forecast layout! Learn more

10-Day Weather Forecast

Advertisements
Track Severe Weather on mobile